sensor_id;sensor_type;location;lat;lon;timestamp;P1;durP1;ratioP1;P2;durP2;ratioP2
68484;SDS011;55472;50.060;21.960;2023-07-13T00:01:30;10.20;;;6.45;;
68484;SDS011;55472;50.060;21.960;2023-07-13T00:03:57;12.38;;;6.68;;
68484;SDS011;55472;50.060;21.960;2023-07-13T00:06:26;10.85;;;6.70;;
68484;SDS011;55472;50.060;21.960;2023-07-13T00:08:58;10.13;;;6.57;;
68484;SDS011;55472;50.060;21.960;2023-07-13T00:11:25;11.82;;;6.75;;
68484;SDS011;55472;50.060;21.960;2023-07-13T00:13:51;11.35;;;6.88;;
68484;SDS011;55472;50.060;21.960;2023-07-13T00:16:17;11.40;;;6.40;;
68484;SDS011;55472;50.060;21.960;2023-07-13T00:18:44;11.38;;;6.40;;
68484;SDS011;55472;50.060;21.960;2023-07-13T00:21:12;11.60;;;7.00;;
68484;SDS011;55472;50.060;21.960;2023-07-13T00:23:39;11.90;;;6.57;;
68484;SDS011;55472;50.060;21.960;2023-07-13T00:26:08;10.77;;;7.07;;
68484;SDS011;55472;50.060;21.960;2023-07-13T00:28:36;11.32;;;6.60;;
68484;SDS011;55472;50.060;21.960;2023-07-13T00:31:02;10.85;;;6.78;;
68484;SDS011;55472;50.060;21.960;2023-07-13T00:33:29;11.03;;;6.43;;
68484;SDS011;55472;50.060;21.960;2023-07-13T00:35:55;12.80;;;6.70;;
68484;SDS011;55472;50.060;21.960;2023-07-13T00:38:22;12.18;;;6.80;;
68484;SDS011;55472;50.060;21.960;2023-07-13T00:40:48;10.95;;;6.50;;
68484;SDS011;55472;50.060;21.960;2023-07-13T00:43:16;10.05;;;5.70;;
68484;SDS011;55472;50.060;21.960;2023-07-13T00:48:17;11.57;;;6.45;;
68484;SDS011;55472;50.060;21.960;2023-07-13T00:50:49;10.13;;;6.43;;
68484;SDS011;55472;50.060;21.960;2023-07-13T00:53:19;11.20;;;7.10;;
68484;SDS011;55472;50.060;21.960;2023-07-13T00:55:47;10.65;;;6.78;;
68484;SDS011;55472;50.060;21.960;2023-07-13T00:58:15;10.60;;;6.73;;
68484;SDS011;55472;50.060;21.960;2023-07-13T01:00:42;11.15;;;7.00;;
68484;SDS011;55472;50.060;21.960;2023-07-13T01:03:09;13.00;;;7.13;;
68484;SDS011;55472;50.060;21.960;2023-07-13T01:05:36;10.75;;;6.55;;
68484;SDS011;55472;50.060;21.960;2023-07-13T01:08:02;10.32;;;6.60;;
68484;SDS011;55472;50.060;21.960;2023-07-13T01:10:30;13.93;;;6.67;;
68484;SDS011;55472;50.060;21.960;2023-07-13T01:13:05;11.68;;;6.68;;
68484;SDS011;55472;50.060;21.960;2023-07-13T01:18:21;13.07;;;7.25;;
68484;SDS011;55472;50.060;21.960;2023-07-13T01:20:57;11.10;;;6.70;;
68484;SDS011;55472;50.060;21.960;2023-07-13T01:23:26;10.67;;;6.80;;
68484;SDS011;55472;50.060;21.960;2023-07-13T01:25:54;12.75;;;6.82;;
68484;SDS011;55472;50.060;21.960;2023-07-13T01:28:21;12.30;;;7.32;;
68484;SDS011;55472;50.060;21.960;2023-07-13T01:30:52;9.80;;;5.97;;
68484;SDS011;55472;50.060;21.960;2023-07-13T01:33:22;9.98;;;6.25;;
68484;SDS011;55472;50.060;21.960;2023-07-13T01:35:49;10.73;;;6.53;;
68484;SDS011;55472;50.060;21.960;2023-07-13T01:38:16;11.73;;;7.53;;
68484;SDS011;55472;50.060;21.960;2023-07-13T01:40:45;13.77;;;7.03;;
68484;SDS011;55472;50.060;21.960;2023-07-13T01:43:12;11.95;;;6.82;;
68484;SDS011;55472;50.060;21.960;2023-07-13T01:45:38;13.57;;;6.70;;
68484;SDS011;55472;50.060;21.960;2023-07-13T01:48:04;11.60;;;6.67;;
68484;SDS011;55472;50.060;21.960;2023-07-13T01:50:32;12.70;;;6.88;;
68484;SDS011;55472;50.060;21.960;2023-07-13T01:52:59;11.43;;;6.65;;
68484;SDS011;55472;50.060;21.960;2023-07-13T01:55:25;11.27;;;6.82;;
68484;SDS011;55472;50.060;21.960;2023-07-13T01:57:52;11.77;;;7.10;;
68484;SDS011;55472;50.060;21.960;2023-07-13T02:00:18;11.57;;;6.90;;
68484;SDS011;55472;50.060;21.960;2023-07-13T02:02:45;11.13;;;6.90;;
68484;SDS011;55472;50.060;21.960;2023-07-13T02:05:11;13.98;;;7.60;;
68484;SDS011;55472;50.060;21.960;2023-07-13T02:07:38;12.32;;;7.03;;
68484;SDS011;55472;50.060;21.960;2023-07-13T02:10:05;11.23;;;7.35;;
68484;SDS011;55472;50.060;21.960;2023-07-13T02:12:33;15.53;;;7.70;;
68484;SDS011;55472;50.060;21.960;2023-07-13T02:15:00;12.02;;;6.93;;
68484;SDS011;55472;50.060;21.960;2023-07-13T02:17:26;12.52;;;7.28;;
68484;SDS011;55472;50.060;21.960;2023-07-13T02:19:53;12.75;;;7.20;;
68484;SDS011;55472;50.060;21.960;2023-07-13T02:22:20;12.73;;;7.40;;
68484;SDS011;55472;50.060;21.960;2023-07-13T02:24:46;13.73;;;7.60;;
68484;SDS011;55472;50.060;21.960;2023-07-13T02:27:13;14.85;;;7.45;;
68484;SDS011;55472;50.060;21.960;2023-07-13T02:29:39;13.55;;;7.20;;
68484;SDS011;55472;50.060;21.960;2023-07-13T02:32:05;14.90;;;7.55;;
68484;SDS011;55472;50.060;21.960;2023-07-13T02:34:32;12.60;;;7.00;;
68484;SDS011;55472;50.060;21.960;2023-07-13T02:36:59;13.43;;;7.30;;
68484;SDS011;55472;50.060;21.960;2023-07-13T02:39:25;13.45;;;7.32;;
68484;SDS011;55472;50.060;21.960;2023-07-13T02:41:52;10.55;;;7.20;;
68484;SDS011;55472;50.060;21.960;2023-07-13T02:44:17;13.35;;;7.90;;
68484;SDS011;55472;50.060;21.960;2023-07-13T02:46:44;14.48;;;7.50;;
68484;SDS011;55472;50.060;21.960;2023-07-13T02:49:10;13.50;;;7.40;;
68484;SDS011;55472;50.060;21.960;2023-07-13T02:51:36;13.65;;;7.50;;
68484;SDS011;55472;50.060;21.960;2023-07-13T02:54:03;12.55;;;7.90;;
68484;SDS011;55472;50.060;21.960;2023-07-13T02:56:30;12.10;;;6.97;;
68484;SDS011;55472;50.060;21.960;2023-07-13T02:58:57;16.98;;;8.30;;
68484;SDS011;55472;50.060;21.960;2023-07-13T03:01:24;12.93;;;7.40;;
68484;SDS011;55472;50.060;21.960;2023-07-13T03:03:50;15.50;;;8.10;;
68484;SDS011;55472;50.060;21.960;2023-07-13T03:06:18;15.48;;;7.82;;
68484;SDS011;55472;50.060;21.960;2023-07-13T03:08:46;16.25;;;8.00;;
68484;SDS011;55472;50.060;21.960;2023-07-13T03:11:15;17.85;;;7.72;;
68484;SDS011;55472;50.060;21.960;2023-07-13T03:13:44;14.63;;;7.83;;
68484;SDS011;55472;50.060;21.960;2023-07-13T03:16:10;14.02;;;7.43;;
68484;SDS011;55472;50.060;21.960;2023-07-13T03:18:37;15.23;;;7.68;;
68484;SDS011;55472;50.060;21.960;2023-07-13T03:21:04;16.77;;;7.80;;
68484;SDS011;55472;50.060;21.960;2023-07-13T03:23:31;14.05;;;7.25;;
68484;SDS011;55472;50.060;21.960;2023-07-13T03:26:05;14.57;;;7.90;;
68484;SDS011;55472;50.060;21.960;2023-07-13T03:28:33;13.38;;;7.28;;
68484;SDS011;55472;50.060;21.960;2023-07-13T03:31:01;13.55;;;7.03;;
68484;SDS011;55472;50.060;21.960;2023-07-13T03:33:30;12.02;;;7.38;;
68484;SDS011;55472;50.060;21.960;2023-07-13T03:35:56;14.50;;;7.50;;
68484;SDS011;55472;50.060;21.960;2023-07-13T03:38:23;15.07;;;7.80;;
68484;SDS011;55472;50.060;21.960;2023-07-13T03:40:49;15.40;;;7.55;;
68484;SDS011;55472;50.060;21.960;2023-07-13T03:43:15;12.63;;;7.72;;
68484;SDS011;55472;50.060;21.960;2023-07-13T03:45:41;16.40;;;7.28;;
68484;SDS011;55472;50.060;21.960;2023-07-13T03:48:07;13.93;;;7.47;;
68484;SDS011;55472;50.060;21.960;2023-07-13T03:50:34;15.80;;;7.00;;
68484;SDS011;55472;50.060;21.960;2023-07-13T03:52:59;12.95;;;7.25;;
68484;SDS011;55472;50.060;21.960;2023-07-13T03:55:26;14.05;;;7.30;;
68484;SDS011;55472;50.060;21.960;2023-07-13T03:57:58;13.23;;;7.85;;
68484;SDS011;55472;50.060;21.960;2023-07-13T04:00:52;14.10;;;8.10;;
68484;SDS011;55472;50.060;21.960;2023-07-13T04:03:19;14.13;;;8.30;;
68484;SDS011;55472;50.060;21.960;2023-07-13T04:05:46;12.57;;;7.60;;
68484;SDS011;55472;50.060;21.960;2023-07-13T04:08:12;14.15;;;8.25;;
68484;SDS011;55472;50.060;21.960;2023-07-13T04:10:38;13.45;;;7.68;;
68484;SDS011;55472;50.060;21.960;2023-07-13T04:13:05;13.55;;;7.90;;
68484;SDS011;55472;50.060;21.960;2023-07-13T04:15:32;15.23;;;8.20;;
68484;SDS011;55472;50.060;21.960;2023-07-13T04:17:58;16.10;;;8.23;;
68484;SDS011;55472;50.060;21.960;2023-07-13T04:20:25;13.13;;;7.38;;
68484;SDS011;55472;50.060;21.960;2023-07-13T04:22:52;13.15;;;7.57;;
68484;SDS011;55472;50.060;21.960;2023-07-13T04:25:19;13.70;;;7.47;;
68484;SDS011;55472;50.060;21.960;2023-07-13T04:27:46;12.43;;;7.50;;
68484;SDS011;55472;50.060;21.960;2023-07-13T04:30:12;14.43;;;7.55;;
68484;SDS011;55472;50.060;21.960;2023-07-13T04:32:38;11.77;;;7.72;;
68484;SDS011;55472;50.060;21.960;2023-07-13T04:35:05;13.60;;;8.13;;
68484;SDS011;55472;50.060;21.960;2023-07-13T04:37:31;14.00;;;8.10;;
68484;SDS011;55472;50.060;21.960;2023-07-13T04:39:58;14.90;;;7.73;;
68484;SDS011;55472;50.060;21.960;2023-07-13T04:42:24;12.43;;;7.93;;
68484;SDS011;55472;50.060;21.960;2023-07-13T04:44:50;11.93;;;7.78;;
68484;SDS011;55472;50.060;21.960;2023-07-13T04:47:17;12.20;;;7.30;;
68484;SDS011;55472;50.060;21.960;2023-07-13T04:49:44;10.45;;;6.60;;
68484;SDS011;55472;50.060;21.960;2023-07-13T04:52:10;11.90;;;6.87;;
68484;SDS011;55472;50.060;21.960;2023-07-13T04:54:38;11.60;;;6.82;;
68484;SDS011;55472;50.060;21.960;2023-07-13T04:57:04;11.77;;;6.90;;
68484;SDS011;55472;50.060;21.960;2023-07-13T04:59:32;12.07;;;7.25;;
68484;SDS011;55472;50.060;21.960;2023-07-13T05:01:58;17.08;;;7.03;;
68484;SDS011;55472;50.060;21.960;2023-07-13T05:04:24;12.80;;;7.17;;
68484;SDS011;55472;50.060;21.960;2023-07-13T05:06:50;12.63;;;7.05;;
68484;SDS011;55472;50.060;21.960;2023-07-13T05:09:17;12.02;;;6.93;;
68484;SDS011;55472;50.060;21.960;2023-07-13T05:11:43;14.23;;;7.32;;
68484;SDS011;55472;50.060;21.960;2023-07-13T05:14:10;11.13;;;7.28;;
68484;SDS011;55472;50.060;21.960;2023-07-13T05:16:36;11.37;;;6.60;;
68484;SDS011;55472;50.060;21.960;2023-07-13T05:19:02;10.98;;;6.50;;
68484;SDS011;55472;50.060;21.960;2023-07-13T05:21:28;10.65;;;6.32;;
68484;SDS011;55472;50.060;21.960;2023-07-13T05:23:55;10.90;;;6.20;;
68484;SDS011;55472;50.060;21.960;2023-07-13T05:26:21;10.02;;;6.05;;
68484;SDS011;55472;50.060;21.960;2023-07-13T05:28:47;12.23;;;6.07;;
68484;SDS011;55472;50.060;21.960;2023-07-13T05:31:13;12.57;;;6.68;;
68484;SDS011;55472;50.060;21.960;2023-07-13T05:33:40;11.50;;;6.47;;
68484;SDS011;55472;50.060;21.960;2023-07-13T05:36:06;11.75;;;7.00;;
68484;SDS011;55472;50.060;21.960;2023-07-13T05:38:32;10.13;;;6.65;;
68484;SDS011;55472;50.060;21.960;2023-07-13T05:40:59;11.17;;;6.67;;
68484;SDS011;55472;50.060;21.960;2023-07-13T05:43:25;12.05;;;7.18;;
68484;SDS011;55472;50.060;21.960;2023-07-13T05:45:55;13.90;;;7.45;;
68484;SDS011;55472;50.060;21.960;2023-07-13T05:48:22;12.38;;;6.95;;
68484;SDS011;55472;50.060;21.960;2023-07-13T05:50:49;12.35;;;7.00;;
68484;SDS011;55472;50.060;21.960;2023-07-13T05:53:15;11.13;;;6.70;;
68484;SDS011;55472;50.060;21.960;2023-07-13T05:55:42;12.73;;;7.03;;
68484;SDS011;55472;50.060;21.960;2023-07-13T05:58:11;9.70;;;6.63;;
68484;SDS011;55472;50.060;21.960;2023-07-13T06:00:37;10.98;;;6.50;;
68484;SDS011;55472;50.060;21.960;2023-07-13T06:03:04;14.32;;;6.90;;
68484;SDS011;55472;50.060;21.960;2023-07-13T06:05:32;12.10;;;6.70;;
68484;SDS011;55472;50.060;21.960;2023-07-13T06:08:00;12.98;;;6.80;;
68484;SDS011;55472;50.060;21.960;2023-07-13T06:10:26;11.50;;;6.53;;
68484;SDS011;55472;50.060;21.960;2023-07-13T06:12:52;9.82;;;6.78;;
68484;SDS011;55472;50.060;21.960;2023-07-13T06:15:18;11.45;;;6.90;;
68484;SDS011;55472;50.060;21.960;2023-07-13T06:17:44;12.80;;;6.87;;
68484;SDS011;55472;50.060;21.960;2023-07-13T06:20:10;12.23;;;7.13;;
68484;SDS011;55472;50.060;21.960;2023-07-13T06:22:37;12.60;;;7.15;;
68484;SDS011;55472;50.060;21.960;2023-07-13T06:25:03;13.02;;;6.78;;
68484;SDS011;55472;50.060;21.960;2023-07-13T06:27:29;13.70;;;8.07;;
68484;SDS011;55472;50.060;21.960;2023-07-13T06:29:56;12.50;;;7.57;;
68484;SDS011;55472;50.060;21.960;2023-07-13T06:32:22;14.95;;;7.97;;
68484;SDS011;55472;50.060;21.960;2023-07-13T06:34:48;12.30;;;7.70;;
68484;SDS011;55472;50.060;21.960;2023-07-13T06:37:14;14.15;;;7.63;;
68484;SDS011;55472;50.060;21.960;2023-07-13T06:39:40;11.80;;;7.10;;
68484;SDS011;55472;50.060;21.960;2023-07-13T06:42:07;10.53;;;7.10;;
68484;SDS011;55472;50.060;21.960;2023-07-13T06:44:33;12.32;;;7.18;;
68484;SDS011;55472;50.060;21.960;2023-07-13T06:46:59;12.02;;;7.50;;
68484;SDS011;55472;50.060;21.960;2023-07-13T06:49:25;12.20;;;7.13;;
68484;SDS011;55472;50.060;21.960;2023-07-13T06:51:51;12.57;;;6.97;;
68484;SDS011;55472;50.060;21.960;2023-07-13T06:54:17;13.97;;;7.07;;
68484;SDS011;55472;50.060;21.960;2023-07-13T06:56:43;11.00;;;7.07;;
68484;SDS011;55472;50.060;21.960;2023-07-13T06:59:09;12.98;;;7.07;;
68484;SDS011;55472;50.060;21.960;2023-07-13T07:01:36;13.63;;;7.35;;
68484;SDS011;55472;50.060;21.960;2023-07-13T07:04:03;13.82;;;7.03;;
68484;SDS011;55472;50.060;21.960;2023-07-13T07:06:29;12.10;;;7.40;;
68484;SDS011;55472;50.060;21.960;2023-07-13T07:08:55;11.35;;;6.78;;
68484;SDS011;55472;50.060;21.960;2023-07-13T07:11:23;12.27;;;7.22;;
68484;SDS011;55472;50.060;21.960;2023-07-13T07:13:51;11.57;;;6.68;;
68484;SDS011;55472;50.060;21.960;2023-07-13T07:16:19;9.98;;;6.50;;
68484;SDS011;55472;50.060;21.960;2023-07-13T07:18:46;10.73;;;7.10;;
68484;SDS011;55472;50.060;21.960;2023-07-13T07:21:13;11.52;;;7.20;;
68484;SDS011;55472;50.060;21.960;2023-07-13T07:23:40;10.98;;;6.40;;
68484;SDS011;55472;50.060;21.960;2023-07-13T07:26:07;12.55;;;6.28;;
68484;SDS011;55472;50.060;21.960;2023-07-13T07:28:35;10.50;;;6.55;;
68484;SDS011;55472;50.060;21.960;2023-07-13T07:31:01;11.70;;;6.07;;
68484;SDS011;55472;50.060;21.960;2023-07-13T07:33:27;9.70;;;6.50;;
68484;SDS011;55472;50.060;21.960;2023-07-13T07:35:55;11.00;;;6.47;;
68484;SDS011;55472;50.060;21.960;2023-07-13T07:38:21;9.88;;;6.25;;
68484;SDS011;55472;50.060;21.960;2023-07-13T07:40:47;9.57;;;5.88;;
68484;SDS011;55472;50.060;21.960;2023-07-13T07:43:13;14.17;;;5.97;;
68484;SDS011;55472;50.060;21.960;2023-07-13T07:45:40;9.38;;;5.50;;
68484;SDS011;55472;50.060;21.960;2023-07-13T07:48:06;9.30;;;5.88;;
68484;SDS011;55472;50.060;21.960;2023-07-13T07:50:35;8.93;;;5.63;;
68484;SDS011;55472;50.060;21.960;2023-07-13T07:53:02;9.40;;;5.40;;
68484;SDS011;55472;50.060;21.960;2023-07-13T07:55:28;9.70;;;5.70;;
68484;SDS011;55472;50.060;21.960;2023-07-13T07:57:56;9.30;;;5.72;;
68484;SDS011;55472;50.060;21.960;2023-07-13T08:00:22;10.35;;;5.47;;
68484;SDS011;55472;50.060;21.960;2023-07-13T08:02:48;9.77;;;5.43;;
68484;SDS011;55472;50.060;21.960;2023-07-13T08:05:15;9.32;;;5.63;;
68484;SDS011;55472;50.060;21.960;2023-07-13T08:07:41;10.17;;;5.80;;
68484;SDS011;55472;50.060;21.960;2023-07-13T08:10:07;9.50;;;5.82;;
68484;SDS011;55472;50.060;21.960;2023-07-13T08:12:38;15.68;;;9.60;;
68484;SDS011;55472;50.060;21.960;2023-07-13T08:15:06;13.05;;;6.80;;
68484;SDS011;55472;50.060;21.960;2023-07-13T08:17:39;10.85;;;5.63;;
68484;SDS011;55472;50.060;21.960;2023-07-13T08:20:05;9.80;;;5.57;;
68484;SDS011;55472;50.060;21.960;2023-07-13T08:22:32;9.48;;;5.78;;
68484;SDS011;55472;50.060;21.960;2023-07-13T08:24:59;10.15;;;5.55;;
68484;SDS011;55472;50.060;21.960;2023-07-13T08:27:25;10.30;;;5.82;;
68484;SDS011;55472;50.060;21.960;2023-07-13T08:29:54;10.10;;;5.30;;
68484;SDS011;55472;50.060;21.960;2023-07-13T08:32:20;8.60;;;5.23;;
68484;SDS011;55472;50.060;21.960;2023-07-13T08:34:48;10.73;;;5.55;;
68484;SDS011;55472;50.060;21.960;2023-07-13T08:37:15;9.68;;;5.60;;
68484;SDS011;55472;50.060;21.960;2023-07-13T08:39:42;12.70;;;5.50;;
68484;SDS011;55472;50.060;21.960;2023-07-13T08:42:13;7.60;;;5.43;;
68484;SDS011;55472;50.060;21.960;2023-07-13T08:45:06;8.07;;;5.37;;
68484;SDS011;55472;50.060;21.960;2023-07-13T08:47:45;7.35;;;5.10;;
68484;SDS011;55472;50.060;21.960;2023-07-13T08:50:19;8.15;;;5.38;;
68484;SDS011;55472;50.060;21.960;2023-07-13T08:52:55;9.73;;;4.97;;
68484;SDS011;55472;50.060;21.960;2023-07-13T08:55:30;11.15;;;5.13;;
68484;SDS011;55472;50.060;21.960;2023-07-13T08:58:14;9.60;;;5.40;;
68484;SDS011;55472;50.060;21.960;2023-07-13T09:00:48;9.20;;;6.07;;
68484;SDS011;55472;50.060;21.960;2023-07-13T09:03:53;6.82;;;3.92;;
68484;SDS011;55472;50.060;21.960;2023-07-13T09:07:11;8.60;;;3.80;;
68484;SDS011;55472;50.060;21.960;2023-07-13T09:10:18;6.97;;;3.78;;
68484;SDS011;55472;50.060;21.960;2023-07-13T09:15:31;8.07;;;4.32;;
68484;SDS011;55472;50.060;21.960;2023-07-13T09:18:04;7.20;;;4.15;;
68484;SDS011;55472;50.060;21.960;2023-07-13T09:20:40;8.88;;;4.13;;
68484;SDS011;55472;50.060;21.960;2023-07-13T09:23:17;8.00;;;3.83;;
68484;SDS011;55472;50.060;21.960;2023-07-13T09:25:47;8.37;;;4.20;;
68484;SDS011;55472;50.060;21.960;2023-07-13T09:28:27;6.38;;;3.90;;
68484;SDS011;55472;50.060;21.960;2023-07-13T09:33:48;5.97;;;3.85;;
68484;SDS011;55472;50.060;21.960;2023-07-13T09:38:55;8.23;;;4.80;;
68484;SDS011;55472;50.060;21.960;2023-07-13T09:47:17;7.45;;;5.13;;
68484;SDS011;55472;50.060;21.960;2023-07-13T09:49:55;7.22;;;5.00;;
68484;SDS011;55472;50.060;21.960;2023-07-13T09:52:29;6.33;;;4.40;;
68484;SDS011;55472;50.060;21.960;2023-07-13T09:55:26;8.15;;;4.65;;
68484;SDS011;55472;50.060;21.960;2023-07-13T09:58:09;7.35;;;4.60;;
68484;SDS011;55472;50.060;21.960;2023-07-13T10:03:29;6.82;;;5.07;;
68484;SDS011;55472;50.060;21.960;2023-07-13T10:06:13;7.83;;;5.47;;
68484;SDS011;55472;50.060;21.960;2023-07-13T10:08:51;8.88;;;5.40;;
68484;SDS011;55472;50.060;21.960;2023-07-13T10:11:20;7.75;;;5.57;;
68484;SDS011;55472;50.060;21.960;2023-07-13T10:14:03;8.75;;;5.45;;
68484;SDS011;55472;50.060;21.960;2023-07-13T10:16:45;8.88;;;5.65;;
68484;SDS011;55472;50.060;21.960;2023-07-13T10:19:17;8.03;;;5.10;;
68484;SDS011;55472;50.060;21.960;2023-07-13T10:21:55;8.10;;;5.53;;
68484;SDS011;55472;50.060;21.960;2023-07-13T10:24:30;8.82;;;5.25;;
68484;SDS011;55472;50.060;21.960;2023-07-13T10:29:42;8.23;;;5.07;;
68484;SDS011;55472;50.060;21.960;2023-07-13T10:32:26;7.53;;;5.00;;
68484;SDS011;55472;50.060;21.960;2023-07-13T10:34:52;8.63;;;5.43;;
68484;SDS011;55472;50.060;21.960;2023-07-13T10:37:29;9.75;;;5.43;;
68484;SDS011;55472;50.060;21.960;2023-07-13T10:40:04;10.00;;;5.57;;
68484;SDS011;55472;50.060;21.960;2023-07-13T10:42:40;7.10;;;4.50;;
68484;SDS011;55472;50.060;21.960;2023-07-13T10:45:12;7.77;;;4.90;;
68484;SDS011;55472;50.060;21.960;2023-07-13T10:47:44;8.70;;;4.68;;
68484;SDS011;55472;50.060;21.960;2023-07-13T10:50:21;7.57;;;4.45;;
68484;SDS011;55472;50.060;21.960;2023-07-13T10:52:52;7.43;;;4.78;;
68484;SDS011;55472;50.060;21.960;2023-07-13T10:58:31;7.97;;;4.73;;
68484;SDS011;55472;50.060;21.960;2023-07-13T11:09:03;8.00;;;4.47;;
68484;SDS011;55472;50.060;21.960;2023-07-13T11:12:02;8.50;;;4.47;;
68484;SDS011;55472;50.060;21.960;2023-07-13T11:15:03;8.82;;;4.10;;
68484;SDS011;55472;50.060;21.960;2023-07-13T11:17:37;8.57;;;4.30;;
68484;SDS011;55472;50.060;21.960;2023-07-13T11:22:43;8.18;;;4.70;;
68484;SDS011;55472;50.060;21.960;2023-07-13T11:25:39;7.00;;;4.20;;
68484;SDS011;55472;50.060;21.960;2023-07-13T11:30:46;8.52;;;4.78;;
68484;SDS011;55472;50.060;21.960;2023-07-13T11:36:00;7.75;;;4.50;;
68484;SDS011;55472;50.060;21.960;2023-07-13T11:38:33;7.87;;;4.50;;
68484;SDS011;55472;50.060;21.960;2023-07-13T11:41:10;7.82;;;4.20;;
68484;SDS011;55472;50.060;21.960;2023-07-13T11:43:55;6.88;;;4.28;;
68484;SDS011;55472;50.060;21.960;2023-07-13T11:47:16;7.10;;;4.45;;
68484;SDS011;55472;50.060;21.960;2023-07-13T11:50:16;6.95;;;4.05;;
68484;SDS011;55472;50.060;21.960;2023-07-13T11:52:32;7.33;;;4.43;;
68484;SDS011;55472;50.060;21.960;2023-07-13T11:55:03;6.63;;;4.70;;
68484;SDS011;55472;50.060;21.960;2023-07-13T11:57:42;8.25;;;5.00;;
68484;SDS011;55472;50.060;21.960;2023-07-13T12:00:13;8.40;;;5.15;;
68484;SDS011;55472;50.060;21.960;2023-07-13T12:02:45;10.90;;;6.13;;
68484;SDS011;55472;50.060;21.960;2023-07-13T12:05:18;13.60;;;5.70;;
68484;SDS011;55472;50.060;21.960;2023-07-13T12:07:46;11.00;;;5.40;;
68484;SDS011;55472;50.060;21.960;2023-07-13T12:15:32;9.43;;;5.95;;
68484;SDS011;55472;50.060;21.960;2023-07-13T12:18:13;8.67;;;4.70;;
68484;SDS011;55472;50.060;21.960;2023-07-13T12:20:44;9.25;;;5.32;;
68484;SDS011;55472;50.060;21.960;2023-07-13T12:25:57;10.63;;;5.15;;
68484;SDS011;55472;50.060;21.960;2023-07-13T12:31:25;9.40;;;5.40;;
68484;SDS011;55472;50.060;21.960;2023-07-13T12:33:57;10.38;;;5.05;;
68484;SDS011;55472;50.060;21.960;2023-07-13T12:36:32;11.43;;;5.07;;
68484;SDS011;55472;50.060;21.960;2023-07-13T12:39:13;9.43;;;4.97;;
68484;SDS011;55472;50.060;21.960;2023-07-13T12:44:53;6.53;;;3.67;;
68484;SDS011;55472;50.060;21.960;2023-07-13T12:47:44;8.75;;;3.80;;
68484;SDS011;55472;50.060;21.960;2023-07-13T12:50:20;6.88;;;3.90;;
68484;SDS011;55472;50.060;21.960;2023-07-13T12:53:01;15.02;;;4.80;;
68484;SDS011;55472;50.060;21.960;2023-07-13T12:55:29;9.00;;;4.63;;
68484;SDS011;55472;50.060;21.960;2023-07-13T12:57:58;8.70;;;5.27;;
68484;SDS011;55472;50.060;21.960;2023-07-13T13:00:33;9.95;;;5.93;;
68484;SDS011;55472;50.060;21.960;2023-07-13T13:03:07;12.15;;;6.20;;
68484;SDS011;55472;50.060;21.960;2023-07-13T13:08:48;11.48;;;7.00;;
68484;SDS011;55472;50.060;21.960;2023-07-13T13:11:17;11.60;;;7.07;;
68484;SDS011;55472;50.060;21.960;2023-07-13T13:13:45;9.63;;;6.07;;
68484;SDS011;55472;50.060;21.960;2023-07-13T13:16:22;11.35;;;5.90;;
68484;SDS011;55472;50.060;21.960;2023-07-13T13:18:59;7.38;;;4.88;;
68484;SDS011;55472;50.060;21.960;2023-07-13T13:21:36;9.63;;;4.28;;
68484;SDS011;55472;50.060;21.960;2023-07-13T13:24:02;6.67;;;4.03;;
68484;SDS011;55472;50.060;21.960;2023-07-13T13:26:35;6.20;;;3.45;;
68484;SDS011;55472;50.060;21.960;2023-07-13T13:29:04;7.38;;;3.97;;
68484;SDS011;55472;50.060;21.960;2023-07-13T13:31:51;4.88;;;2.92;;
68484;SDS011;55472;50.060;21.960;2023-07-13T13:34:19;6.03;;;2.80;;
68484;SDS011;55472;50.060;21.960;2023-07-13T13:36:50;4.90;;;2.77;;
68484;SDS011;55472;50.060;21.960;2023-07-13T13:39:18;5.88;;;2.60;;
68484;SDS011;55472;50.060;21.960;2023-07-13T13:41:50;5.38;;;2.38;;
68484;SDS011;55472;50.060;21.960;2023-07-13T13:44:18;7.85;;;2.60;;
68484;SDS011;55472;50.060;21.960;2023-07-13T13:46:46;4.85;;;2.13;;
68484;SDS011;55472;50.060;21.960;2023-07-13T13:49:20;5.90;;;1.90;;
68484;SDS011;55472;50.060;21.960;2023-07-13T13:51:51;3.92;;;1.83;;
68484;SDS011;55472;50.060;21.960;2023-07-13T13:54:18;4.50;;;1.80;;
68484;SDS011;55472;50.060;21.960;2023-07-13T13:56:47;4.05;;;1.67;;
68484;SDS011;55472;50.060;21.960;2023-07-13T13:59:16;4.13;;;1.80;;
68484;SDS011;55472;50.060;21.960;2023-07-13T14:01:44;4.47;;;1.70;;
68484;SDS011;55472;50.060;21.960;2023-07-13T14:04:19;4.72;;;1.90;;
68484;SDS011;55472;50.060;21.960;2023-07-13T14:06:47;3.25;;;1.55;;
68484;SDS011;55472;50.060;21.960;2023-07-13T14:09:15;5.13;;;1.70;;
68484;SDS011;55472;50.060;21.960;2023-07-13T14:11:44;4.60;;;1.38;;
68484;SDS011;55472;50.060;21.960;2023-07-13T14:14:14;4.63;;;1.60;;
68484;SDS011;55472;50.060;21.960;2023-07-13T14:16:45;3.88;;;1.40;;
68484;SDS011;55472;50.060;21.960;2023-07-13T14:19:12;5.70;;;1.70;;
68484;SDS011;55472;50.060;21.960;2023-07-13T14:21:39;4.22;;;1.23;;
68484;SDS011;55472;50.060;21.960;2023-07-13T14:24:06;4.45;;;1.63;;
68484;SDS011;55472;50.060;21.960;2023-07-13T14:26:35;3.73;;;1.60;;
68484;SDS011;55472;50.060;21.960;2023-07-13T14:29:05;5.03;;;1.55;;
68484;SDS011;55472;50.060;21.960;2023-07-13T14:31:40;4.97;;;1.67;;
68484;SDS011;55472;50.060;21.960;2023-07-13T14:34:07;5.13;;;1.55;;
68484;SDS011;55472;50.060;21.960;2023-07-13T14:36:40;4.10;;;1.50;;
68484;SDS011;55472;50.060;21.960;2023-07-13T14:39:20;3.83;;;1.50;;
68484;SDS011;55472;50.060;21.960;2023-07-13T14:41:53;3.85;;;1.63;;
68484;SDS011;55472;50.060;21.960;2023-07-13T14:44:22;3.58;;;1.50;;
68484;SDS011;55472;50.060;21.960;2023-07-13T14:46:51;5.47;;;1.70;;
68484;SDS011;55472;50.060;21.960;2023-07-13T14:51:59;3.97;;;1.60;;
68484;SDS011;55472;50.060;21.960;2023-07-13T14:54:36;3.53;;;1.55;;
68484;SDS011;55472;50.060;21.960;2023-07-13T14:57:16;4.93;;;1.40;;
68484;SDS011;55472;50.060;21.960;2023-07-13T14:59:47;5.63;;;1.50;;
68484;SDS011;55472;50.060;21.960;2023-07-13T15:04:55;3.83;;;1.57;;
68484;SDS011;55472;50.060;21.960;2023-07-13T15:07:22;5.13;;;1.58;;
68484;SDS011;55472;50.060;21.960;2023-07-13T15:09:48;4.68;;;1.60;;
68484;SDS011;55472;50.060;21.960;2023-07-13T15:12:16;4.80;;;1.70;;
68484;SDS011;55472;50.060;21.960;2023-07-13T15:14:43;3.97;;;1.80;;
68484;SDS011;55472;50.060;21.960;2023-07-13T15:17:23;7.30;;;1.80;;
68484;SDS011;55472;50.060;21.960;2023-07-13T15:19:57;3.90;;;1.77;;
68484;SDS011;55472;50.060;21.960;2023-07-13T15:22:25;3.45;;;1.73;;
68484;SDS011;55472;50.060;21.960;2023-07-13T15:24:51;4.53;;;1.80;;
68484;SDS011;55472;50.060;21.960;2023-07-13T15:27:17;3.67;;;1.48;;
68484;SDS011;55472;50.060;21.960;2023-07-13T15:29:46;4.87;;;1.83;;
68484;SDS011;55472;50.060;21.960;2023-07-13T15:32:13;3.65;;;1.55;;
68484;SDS011;55472;50.060;21.960;2023-07-13T15:34:39;4.55;;;1.63;;
68484;SDS011;55472;50.060;21.960;2023-07-13T15:37:12;4.90;;;1.90;;
68484;SDS011;55472;50.060;21.960;2023-07-13T15:39:41;5.43;;;1.98;;
68484;SDS011;55472;50.060;21.960;2023-07-13T15:42:13;4.53;;;1.70;;
68484;SDS011;55472;50.060;21.960;2023-07-13T15:44:44;3.40;;;1.80;;
68484;SDS011;55472;50.060;21.960;2023-07-13T15:47:12;3.75;;;1.85;;
68484;SDS011;55472;50.060;21.960;2023-07-13T15:49:39;3.35;;;1.48;;